Time;durP1;ratioP1;P1;durP2;ratioP2;P2;SDS_P1;SDS_P2;PMS_P1;PMS_P2;Temp;Humidity;BMP_temperature;BMP_pressure;BME280_temperature;BME280_humidity;BME280_pressure;Samples;Min_cycle;Max_cycle;Signal;HPM_P1;HPM_P2
2021/08/15 00:00:17;;;;;;;16.40;7.74;;;;;;;;;;390448;134;856699;-59
2021/08/15 00:01:18;;;;;;;13.82;7.53;;;;;;;;;;388357;136;856572;-59
2021/08/15 00:02:20;;;;;;;15.21;7.69;;;;;;;;;;387386;134;863805;-59
2021/08/15 00:03:21;;;;;;;14.13;7.17;;;;;;;;;;388202;136;856310;-59
2021/08/15 00:04:23;;;;;;;15.64;7.05;;;;;;;;;;392416;136;856846;-59
2021/08/15 00:05:24;;;;;;;15.12;6.83;;;;;;;;;;390014;136;856884;-59
2021/08/15 00:06:26;;;;;;;12.37;6.17;;;;;;;;;;388236;135;856307;-59
2021/08/15 00:07:28;;;;;;;15.31;7.31;;;;;;;;;;387992;136;856160;-59
2021/08/15 00:08:29;;;;;;;14.36;7.33;;;;;;;;;;388771;134;864272;-59
2021/08/15 00:09:31;;;;;;;13.14;7.52;;;;;;;;;;388647;135;856164;-59
2021/08/15 00:10:35;;;;;;;20.36;8.06;;;;;;;;;;389269;135;856256;-60
2021/08/15 00:11:37;;;;;;;13.49;7.53;;;;;;;;;;391189;136;856205;-59
2021/08/15 00:12:38;;;;;;;18.44;7.71;;;;;;;;;;390076;134;856200;-59
2021/08/15 00:13:40;;;;;;;14.23;7.00;;;;;;;;;;390989;135;856247;-60
2021/08/15 00:14:41;;;;;;;10.46;6.76;;;;;;;;;;393685;136;856244;-59
2021/08/15 00:15:43;;;;;;;10.72;6.64;;;;;;;;;;392739;134;856180;-59
2021/08/15 00:16:45;;;;;;;11.37;7.49;;;;;;;;;;387909;136;856488;-60
2021/08/15 00:17:46;;;;;;;11.56;6.61;;;;;;;;;;391674;135;856093;-59
2021/08/15 00:18:48;;;;;;;11.67;7.23;;;;;;;;;;388429;136;856064;-59
2021/08/15 00:19:49;;;;;;;12.89;7.31;;;;;;;;;;388178;134;856123;-59
2021/08/15 00:20:51;;;;;;;13.46;7.48;;;;;;;;;;388478;135;856162;-59
2021/08/15 00:21:53;;;;;;;12.03;7.51;;;;;;;;;;387643;136;856098;-60
2021/08/15 00:22:55;;;;;;;12.96;7.34;;;;;;;;;;391000;134;856644;-60
2021/08/15 00:23:57;;;;;;;13.81;7.46;;;;;;;;;;388614;135;856499;-59
2021/08/15 00:24:58;;;;;;;12.79;6.94;;;;;;;;;;388031;136;856271;-58
2021/08/15 00:26:00;;;;;;;12.24;7.79;;;;;;;;;;388135;137;856497;-59
2021/08/15 00:27:02;;;;;;;13.56;7.76;;;;;;;;;;389045;134;856747;-59
2021/08/15 00:28:03;;;;;;;12.88;7.54;;;;;;;;;;390333;135;856474;-59
2021/08/15 00:29:05;;;;;;;12.86;7.54;;;;;;;;;;389973;136;857006;-59
2021/08/15 00:30:07;;;;;;;11.59;7.30;;;;;;;;;;390753;134;856108;-59
2021/08/15 00:31:09;;;;;;;10.52;7.21;;;;;;;;;;388220;135;856075;-59
2021/08/15 00:32:10;;;;;;;11.39;7.13;;;;;;;;;;380768;137;856223;-59
2021/08/15 00:33:12;;;;;;;13.61;7.44;;;;;;;;;;384080;137;856376;-59
2021/08/15 00:34:14;;;;;;;14.53;7.62;;;;;;;;;;389649;134;856211;-58
2021/08/15 00:35:15;;;;;;;12.23;6.96;;;;;;;;;;390084;135;856207;-59
2021/08/15 00:36:17;;;;;;;10.45;7.27;;;;;;;;;;392066;136;856602;-59
2021/08/15 00:37:19;;;;;;;15.96;7.26;;;;;;;;;;393561;134;856070;-59
2021/08/15 00:38:20;;;;;;;12.26;6.98;;;;;;;;;;388167;135;856367;-59
2021/08/15 00:39:22;;;;;;;10.59;6.60;;;;;;;;;;392465;136;856186;-59
2021/08/15 00:40:24;;;;;;;10.55;6.89;;;;;;;;;;388997;136;856253;-59
2021/08/15 00:41:26;;;;;;;13.71;6.99;;;;;;;;;;388567;134;856737;-59
2021/08/15 00:42:27;;;;;;;14.95;7.71;;;;;;;;;;387596;135;856189;-59
2021/08/15 00:43:31;;;;;;;17.59;7.83;;;;;;;;;;392266;137;856150;-59
2021/08/15 00:44:32;;;;;;;16.81;7.74;;;;;;;;;;390933;134;856145;-59
2021/08/15 00:45:34;;;;;;;15.96;7.60;;;;;;;;;;387864;135;856443;-59
2021/08/15 00:46:37;;;;;;;15.34;8.29;;;;;;;;;;387419;135;856093;-59
2021/08/15 00:47:39;;;;;;;13.42;7.01;;;;;;;;;;391609;136;856108;-59
2021/08/15 00:48:40;;;;;;;12.56;7.49;;;;;;;;;;387143;134;863852;-59
2021/08/15 00:49:42;;;;;;;11.51;6.86;;;;;;;;;;388512;135;856085;-59
2021/08/15 00:50:45;;;;;;;10.68;6.81;;;;;;;;;;391322;136;856094;-59
2021/08/15 00:51:47;;;;;;;13.45;6.84;;;;;;;;;;391836;134;856189;-59
2021/08/15 00:52:48;;;;;;;10.54;7.11;;;;;;;;;;387452;136;856057;-59
2021/08/15 00:53:50;;;;;;;10.21;6.50;;;;;;;;;;391582;136;856095;-59
2021/08/15 00:54:52;;;;;;;13.45;7.74;;;;;;;;;;392399;136;856036;-59
2021/08/15 00:55:54;;;;;;;11.89;7.31;;;;;;;;;;386890;134;863804;-59
2021/08/15 00:56:56;;;;;;;12.29;6.78;;;;;;;;;;389972;135;856564;-60
2021/08/15 00:57:57;;;;;;;11.61;7.11;;;;;;;;;;388842;137;856347;-59
2021/08/15 00:59:03;;;;;;;11.63;7.37;;;;;;;;;;391199;136;856288;-59
2021/08/15 01:00:06;;;;;;;11.81;7.59;;;;;;;;;;390407;135;856403;-59
2021/08/15 01:01:08;;;;;;;10.13;7.49;;;;;;;;;;389982;138;856145;-59
2021/08/15 01:02:09;;;;;;;11.89;6.49;;;;;;;;;;394397;134;856094;-59
2021/08/15 01:03:11;;;;;;;12.26;6.88;;;;;;;;;;386861;136;856158;-59
2021/08/15 01:04:12;;;;;;;11.06;6.92;;;;;;;;;;385360;136;856258;-59
2021/08/15 01:05:14;;;;;;;14.49;7.36;;;;;;;;;;391338;134;856185;-59
2021/08/15 01:06:18;;;;;;;11.59;7.14;;;;;;;;;;395830;133;856113;-59
2021/08/15 01:07:19;;;;;;;10.76;6.58;;;;;;;;;;395111;133;856639;-60
2021/08/15 01:08:21;;;;;;;11.36;7.01;;;;;;;;;;398892;133;856220;-59
2021/08/15 01:09:23;;;;;;;13.61;7.46;;;;;;;;;;393642;134;856194;-59
2021/08/15 01:10:26;;;;;;;15.94;7.50;;;;;;;;;;394169;133;856315;-59
2021/08/15 01:11:27;;;;;;;14.73;7.69;;;;;;;;;;392717;133;856147;-59
2021/08/15 01:12:29;;;;;;;15.76;8.35;;;;;;;;;;391215;137;863808;-59
2021/08/15 01:13:31;;;;;;;13.27;7.21;;;;;;;;;;391196;135;864432;-59
2021/08/15 01:14:32;;;;;;;14.24;7.93;;;;;;;;;;393758;133;856137;-59
2021/08/15 01:15:34;;;;;;;13.93;8.11;;;;;;;;;;392760;133;856634;-59
2021/08/15 01:16:43;;;;;;;12.14;7.19;;;;;;;;;;392662;134;856181;-59
2021/08/15 01:17:45;;;;;;;10.36;6.86;;;;;;;;;;393200;133;856833;-59
2021/08/15 01:18:46;;;;;;;10.54;7.41;;;;;;;;;;394112;133;856085;-59
2021/08/15 01:19:54;;;;;;;12.01;7.15;;;;;;;;;;392772;134;862198;-59
2021/08/15 01:21:10;;;;;;;12.68;6.51;;;;;;;;;;392145;133;856858;-59
2021/08/15 01:22:12;;;;;;;10.59;7.19;;;;;;;;;;392309;133;856109;-59
2021/08/15 01:23:13;;;;;;;13.34;7.11;;;;;;;;;;394037;134;856067;-59
2021/08/15 01:24:15;;;;;;;11.70;6.99;;;;;;;;;;394291;133;856087;-59
2021/08/15 01:25:16;;;;;;;12.89;7.25;;;;;;;;;;393782;133;856137;-59
2021/08/15 01:26:18;;;;;;;11.95;7.26;;;;;;;;;;392675;133;856119;-59
2021/08/15 01:27:20;;;;;;;13.61;7.40;;;;;;;;;;393527;134;863726;-59
2021/08/15 01:28:22;;;;;;;11.97;7.16;;;;;;;;;;392643;133;856306;-59
2021/08/15 01:29:23;;;;;;;10.26;6.59;;;;;;;;;;393197;133;864218;-59
2021/08/15 01:30:27;;;;;;;12.47;7.46;;;;;;;;;;392769;134;863921;-59
2021/08/15 01:31:29;;;;;;;10.59;7.49;;;;;;;;;;393430;134;856829;-59
2021/08/15 01:32:30;;;;;;;12.25;7.97;;;;;;;;;;393831;133;864473;-59
2021/08/15 01:33:33;;;;;;;10.74;7.92;;;;;;;;;;392630;136;864061;-59
2021/08/15 01:34:34;;;;;;;13.95;8.25;;;;;;;;;;393758;134;856149;-60
2021/08/15 01:35:36;;;;;;;13.09;7.52;;;;;;;;;;393014;133;863883;-59
2021/08/15 01:36:38;;;;;;;12.11;8.26;;;;;;;;;;392529;133;856203;-59
2021/08/15 01:37:39;;;;;;;11.83;7.64;;;;;;;;;;394096;134;856121;-59
2021/08/15 01:38:41;;;;;;;11.79;7.44;;;;;;;;;;397995;133;856090;-60
2021/08/15 01:39:42;;;;;;;15.04;7.54;;;;;;;;;;392590;134;856154;-59
2021/08/15 01:40:46;;;;;;;10.90;7.85;;;;;;;;;;393670;136;863826;-59
2021/08/15 01:41:47;;;;;;;13.40;7.74;;;;;;;;;;394075;134;856132;-60
2021/08/15 01:42:49;;;;;;;12.88;7.04;;;;;;;;;;393460;133;863752;-59
2021/08/15 01:43:52;;;;;;;12.46;8.07;;;;;;;;;;392548;134;856185;-59
2021/08/15 01:44:54;;;;;;;13.06;6.92;;;;;;;;;;392565;137;856173;-59
2021/08/15 01:45:56;;;;;;;11.29;7.24;;;;;;;;;;393630;133;856882;-60
2021/08/15 01:46:59;;;;;;;13.32;7.94;;;;;;;;;;392805;134;863969;-59
2021/08/15 01:48:00;;;;;;;13.86;8.46;;;;;;;;;;392719;134;856846;-59
2021/08/15 01:49:02;;;;;;;12.49;8.56;;;;;;;;;;394547;133;856833;-59
2021/08/15 01:50:04;;;;;;;12.01;8.03;;;;;;;;;;393694;133;856231;-59
2021/08/15 01:51:06;;;;;;;11.33;7.79;;;;;;;;;;393305;133;856246;-59
2021/08/15 01:52:07;;;;;;;12.08;7.86;;;;;;;;;;394224;134;856040;-59
2021/08/15 01:53:10;;;;;;;12.75;8.01;;;;;;;;;;394483;133;856605;-59
2021/08/15 01:54:11;;;;;;;15.25;8.39;;;;;;;;;;393546;133;856378;-59
2021/08/15 01:55:13;;;;;;;10.34;7.25;;;;;;;;;;392920;134;856289;-59
2021/08/15 01:56:15;;;;;;;11.65;7.45;;;;;;;;;;393729;133;856162;-59
2021/08/15 01:57:17;;;;;;;11.22;8.04;;;;;;;;;;392845;133;856112;-59
2021/08/15 01:58:19;;;;;;;11.04;8.09;;;;;;;;;;393514;134;864213;-59
2021/08/15 01:59:20;;;;;;;9.87;7.19;;;;;;;;;;392693;134;856207;-59
2021/08/15 02:00:23;;;;;;;14.55;7.13;;;;;;;;;;393009;134;856204;-59
2021/08/15 02:01:25;;;;;;;16.00;8.81;;;;;;;;;;389021;135;856046;-59
2021/08/15 02:02:27;;;;;;;12.95;7.75;;;;;;;;;;390878;137;856704;-59
2021/08/15 02:03:28;;;;;;;15.56;8.18;;;;;;;;;;391502;134;856070;-59
2021/08/15 02:04:30;;;;;;;14.94;8.51;;;;;;;;;;386830;136;856914;-60
2021/08/15 02:05:31;;;;;;;12.93;7.77;;;;;;;;;;388279;135;856682;-59
2021/08/15 02:06:33;;;;;;;13.41;7.79;;;;;;;;;;385297;136;856237;-59
2021/08/15 02:07:35;;;;;;;14.08;8.71;;;;;;;;;;387790;135;856215;-59
2021/08/15 02:08:36;;;;;;;12.52;8.31;;;;;;;;;;386385;135;856324;-60
2021/08/15 02:09:38;;;;;;;11.43;8.16;;;;;;;;;;386609;137;856043;-59
2021/08/15 02:10:40;;;;;;;14.71;8.44;;;;;;;;;;390252;134;856176;-59
2021/08/15 02:11:42;;;;;;;16.21;7.86;;;;;;;;;;386798;136;856645;-59
2021/08/15 02:12:43;;;;;;;11.78;8.01;;;;;;;22.38;100.00;112913.89;390654;135;856644;-59
2021/08/15 02:13:45;;;;;;;10.88;6.95;;;;;;;;;;390335;137;864714;-59
2021/08/15 02:14:47;;;;;;;13.49;8.03;;;;;;;;;;386514;134;863831;-59
2021/08/15 02:15:48;;;;;;;19.24;7.59;;;;;;;;;;387953;135;856103;-59
2021/08/15 02:16:52;;;;;;;12.56;7.41;;;;;;;;;;386221;137;856144;-59
2021/08/15 02:17:53;;;;;;;13.48;7.34;;;;;;;;;;386795;134;856254;-59
2021/08/15 02:18:55;;;;;;;15.22;8.10;;;;;;;;;;386416;135;856095;-59
2021/08/15 02:19:56;;;;;;;13.50;7.90;;;;;;;;;;390320;137;856331;-59
2021/08/15 02:20:58;;;;;;;11.21;7.36;;;;;;;;;;387869;137;856267;-59
2021/08/15 02:22:00;;;;;;;15.93;7.72;;;;;;;;;;385983;134;863956;-59
2021/08/15 02:23:01;;;;;;;12.73;7.62;;;;;;;;;;389582;135;856737;-59
2021/08/15 02:24:03;;;;;;;12.59;7.64;;;;;;;;;;388129;136;857334;-59
2021/08/15 02:25:06;;;;;;;13.38;7.41;;;;;;;;;;385582;134;863828;-59
2021/08/15 02:26:08;;;;;;;13.03;8.23;;;;;;;;;;387006;135;863871;-59
2021/08/15 02:27:09;;;;;;;10.96;7.66;;;;;;;;;;386735;137;856087;-59
2021/08/15 02:28:11;;;;;;;14.98;8.12;;;;;;;;;;386446;137;856590;-59
2021/08/15 02:29:13;;;;;;;13.01;7.90;;;;;;;;;;386928;135;856597;-59
2021/08/15 02:30:15;;;;;;;14.63;7.87;;;;;;;;;;388356;137;856131;-59
2021/08/15 02:31:17;;;;;;;14.01;8.17;;;;;;;;;;387851;134;856051;-59
2021/08/15 02:32:18;;;;;;;13.02;7.73;;;;;;;;;;386527;134;856086;-58
2021/08/15 02:33:20;;;;;;;9.61;7.97;;;;;;;;;;386062;137;856086;-58
2021/08/15 02:34:24;;;;;;;12.62;8.11;;;;;;;;;;389373;137;856288;-58
2021/08/15 02:35:33;;;;;;;11.51;7.71;;;;;;;;;;388660;137;856192;-59
2021/08/15 02:36:31;;;;;;;13.78;8.87;;;;;;;;;;385711;135;856819;-59
2021/08/15 02:37:33;;;;;;;13.35;8.34;;;;;;;;;;388038;135;856125;-58
2021/08/15 02:38:34;;;;;;;13.23;7.93;;;;;;;;;;385691;137;858973;-60
2021/08/15 02:39:36;;;;;;;11.85;7.99;;;;;;;;;;386824;134;857643;-59
2021/08/15 02:40:38;;;;;;;13.73;8.43;;;;;;;;;;386783;135;857056;-58
2021/08/15 02:41:40;;;;;;;14.47;7.89;;;;;;;;;;391030;136;857145;-58
2021/08/15 02:42:43;;;;;;;10.98;8.03;;;;;;;;;;387411;136;866639;-59
2021/08/15 02:43:44;;;;;;;13.48;7.95;;;;;;;;;;387486;135;857203;-57
2021/08/15 02:44:46;;;;;;;13.34;8.44;;;;;;;;;;389308;137;856097;-58
2021/08/15 02:45:47;;;;;;;12.08;8.35;;;;;;;;;;390778;137;856107;-57
2021/08/15 02:46:50;;;;;;;17.25;8.49;;;;;;;;;;386394;135;864052;-58
2021/08/15 02:47:52;;;;;;;12.24;8.70;;;;;;;;;;387094;135;864846;-58
2021/08/15 02:48:53;;;;;;;14.36;8.46;;;;;;;;;;391122;136;856235;-59
2021/08/15 02:49:55;;;;;;;12.33;8.36;;;;;;;;;;390095;134;863851;-59
2021/08/15 02:50:57;;;;;;;14.91;8.52;;;;;;;;;;386092;135;856800;-58
2021/08/15 02:51:58;;;;;;;13.59;8.26;;;;;;;;;;391176;137;864209;-59
2021/08/15 02:53:00;;;;;;;16.36;8.66;;;;;;;;;;389411;136;856426;-59
2021/08/15 02:54:01;;;;;;;15.66;8.46;;;;;;;;;;386868;134;856617;-58
2021/08/15 02:55:03;;;;;;;14.90;8.42;;;;;;;;;;386290;135;856473;-58
2021/08/15 02:56:06;;;;;;;13.90;8.59;;;;;;;;;;388106;137;856439;-58
2021/08/15 02:57:07;;;;;;;13.01;7.92;;;;;;;;;;387594;134;863651;-58
2021/08/15 02:58:09;;;;;;;15.75;8.76;;;;;;;;;;387481;135;863959;-58
2021/08/15 02:59:11;;;;;;;12.46;8.27;;;;;;;;;;386203;137;856102;-58
2021/08/15 03:00:14;;;;;;;11.86;8.94;;;;;;;;;;386677;137;856114;-58
2021/08/15 03:01:16;;;;;;;11.35;8.56;;;;;;;;;;385975;135;856070;-57
2021/08/15 03:02:17;;;;;;;11.47;7.79;;;;;;;;;;392703;133;863749;-58
2021/08/15 03:03:19;;;;;;;12.24;8.13;;;;;;;;;;395662;134;856339;-57
2021/08/15 03:04:21;;;;;;;12.91;7.69;;;;;;;;;;394656;133;863865;-59
2021/08/15 03:05:22;;;;;;;13.96;8.31;;;;;;;;;;393088;133;856486;-58
2021/08/15 03:06:25;;;;;;;13.88;8.26;;;;;;;;;;393141;133;856932;-59
2021/08/15 03:07:26;;;;;;;11.53;8.51;;;;;;;;;;395315;134;856484;-58
2021/08/15 03:08:28;;;;;;;11.04;8.11;;;;;;;;;;392894;133;856483;-57
2021/08/15 03:09:29;;;;;;;13.73;9.03;;;;;;;;;;393476;133;863862;-57
2021/08/15 03:10:32;;;;;;;22.02;8.97;;;;;;;;;;393688;134;856202;-57
2021/08/15 03:11:34;;;;;;;15.99;8.93;;;;;;;;;;395203;133;856182;-57
2021/08/15 03:12:35;;;;;;;16.79;8.22;;;;;;;;;;392927;133;856143;-60
2021/08/15 03:13:37;;;;;;;14.22;8.91;;;;;;;;;;398801;133;856187;-56
2021/08/15 03:14:38;;;;;;;15.38;8.10;;;;;;;;;;393126;134;863784;-57
2021/08/15 03:15:40;;;;;;;15.30;8.56;;;;;;;;;;392537;133;856078;-57
2021/08/15 03:16:42;;;;;;;11.76;8.44;;;;;;;;;;392772;133;864601;-58
2021/08/15 03:17:44;;;;;;;16.04;7.94;;;;;;;;;;394249;134;856135;-57
2021/08/15 03:18:45;;;;;;;13.76;8.34;;;;;;;;;;398234;133;863814;-57
2021/08/15 03:19:47;;;;;;;13.30;8.46;;;;;;;;;;395162;133;856417;-57
2021/08/15 03:20:49;;;;;;;13.01;8.54;;;;;;;;;;393556;134;855978;-57
2021/08/15 03:21:51;;;;;;;15.62;9.39;;;;;;;;;;397814;134;863772;-57
2021/08/15 03:22:53;;;;;;;14.75;8.24;;;;;;;;;;392798;133;863664;-58
2021/08/15 03:23:54;;;;;;;15.62;9.49;;;;;;;;;;394207;133;863699;-60
2021/08/15 03:24:56;;;;;;;11.31;8.15;;;;;;;;;;393726;134;856815;-59
2021/08/15 03:25:57;;;;;;;13.57;9.02;;;;;;;;;;394744;133;856250;-57
2021/08/15 03:26:59;;;;;;;13.06;8.21;;;;;;;;;;393084;133;856432;-57
2021/08/15 03:28:00;;;;;;;11.90;8.12;;;;;;;;;;393409;134;856306;-58
2021/08/15 03:29:02;;;;;;;16.81;8.82;;;;;;;;;;392634;134;856300;-58
2021/08/15 03:30:04;;;;;;;17.13;8.31;;;;;;;;;;392585;133;856813;-58
2021/08/15 03:31:05;;;;;;;12.99;8.35;;;;;;;;;;392988;133;865299;-59
2021/08/15 03:32:07;;;;;;;12.86;8.88;;;;;;;;;;392582;134;863737;-56
2021/08/15 03:33:08;;;;;;;15.62;9.06;;;;;;;;;;392633;133;856711;-56
2021/08/15 03:34:10;;;;;;;10.62;8.20;;;;;;;;;;392818;133;856219;-58
2021/08/15 03:35:12;;;;;;;12.15;8.17;;;;;;;;;;392672;133;856186;-56
2021/08/15 03:36:15;;;;;;;14.21;7.94;;;;;;;;;;392548;137;856082;-58
2021/08/15 03:37:18;;;;;;;14.46;8.24;;;;;;;;;;392512;133;856179;-57
2021/08/15 03:38:19;;;;;;;12.15;8.20;;;;;;;;;;393629;133;863753;-58
2021/08/15 03:39:21;;;;;;;13.61;8.31;;;;;;;;;;392454;137;856150;-57
2021/08/15 03:40:23;;;;;;;12.95;9.16;;;;;;;;;;392656;134;856922;-57
2021/08/15 03:41:24;;;;;;;14.34;8.73;;;;;;;;;;392938;133;856310;-58
2021/08/15 03:42:26;;;;;;;15.09;8.78;;;;;;;;;;399062;134;856227;-58
2021/08/15 03:43:27;;;;;;;12.79;8.33;;;;;;;;;;393277;134;856182;-58
2021/08/15 03:44:29;;;;;;;12.61;8.19;;;;;;;;;;393605;133;856139;-57
2021/08/15 03:45:31;;;;;;;14.97;8.09;;;;;;;;;;393041;133;856799;-57
2021/08/15 03:46:35;;;;;;;16.14;8.76;;;;;;;;;;394798;134;863860;-57
2021/08/15 03:47:36;;;;;;;13.91;8.64;;;;;;;;;;394022;133;863686;-58
2021/08/15 03:48:38;;;;;;;14.29;8.63;;;;;;;;;;393812;133;863865;-57
2021/08/15 03:49:39;;;;;;;15.11;8.84;;;;;;;;;;392855;133;856231;-57
2021/08/15 03:50:46;;;;;;;15.81;9.29;;;;;;;;;;397635;134;856110;-57
2021/08/15 03:51:47;;;;;;;19.96;9.96;;;;;;;;;;394530;133;856100;-58
2021/08/15 03:52:49;;;;;;;19.21;9.69;;;;;;;;;;392774;134;863668;-57
2021/08/15 03:53:50;;;;;;;14.83;9.01;;;;;;;;;;392926;134;863879;-55
2021/08/15 03:54:52;;;;;;;17.97;8.59;;;;;;;;;;393967;133;856189;-55
2021/08/15 03:55:53;;;;;;;13.35;9.09;;;;;;;;;;394195;134;856141;-55
2021/08/15 03:56:55;;;;;;;17.86;9.19;;;;;;;;;;394146;134;856042;-58
2021/08/15 03:57:57;;;;;;;15.56;9.08;;;;;;;;;;392550;134;863946;-58
2021/08/15 03:58:58;;;;;;;14.50;9.30;;;;;;;;;;393285;133;856456;-55
2021/08/15 04:00:00;;;;;;;13.35;8.51;;;;;;;;;;394789;133;856437;-58
2021/08/15 04:01:02;;;;;;;18.55;9.21;;;;;;;;;;394344;134;857228;-57
2021/08/15 04:02:03;;;;;;;15.59;8.89;;;;;;;;;;393365;133;856427;-58
2021/08/15 04:03:05;;;;;;;15.70;8.68;;;;;;;;;;395363;134;863985;-58
2021/08/15 04:04:06;;;;;;;15.28;9.53;;;;;;;;;;393496;134;856218;-59
2021/08/15 04:05:08;;;;;;;19.52;8.77;;;;;;;;;;393095;133;863961;-58
2021/08/15 04:06:16;;;;;;;14.38;9.05;;;;;;;;;;393596;133;856198;-60
2021/08/15 04:07:14;;;;;;;14.13;9.32;;;;;;;;;;393096;134;856624;-60
2021/08/15 04:08:16;;;;;;;13.99;9.50;;;;;;;;;;397481;134;856283;-59
2021/08/15 04:09:17;;;;;;;16.91;9.16;;;;;;;;;;393314;133;864034;-60
2021/08/15 04:10:19;;;;;;;12.93;8.81;;;;;;;;;;393333;133;856440;-59
2021/08/15 04:11:21;;;;;;;16.67;9.71;;;;;;;;;;392531;136;856208;-59
2021/08/15 04:12:22;;;;;;;16.24;9.10;;;;;;;;;;396351;133;856537;-59
2021/08/15 04:13:24;;;;;;;14.86;9.32;;;;;;;;;;393296;133;856326;-59
2021/08/15 04:14:26;;;;;;;14.71;9.15;;;;;;;;;;392978;134;856251;-59
2021/08/15 04:15:27;;;;;;;16.07;9.65;;;;;;;;;;392723;134;856687;-59
2021/08/15 04:16:31;;;;;;;14.11;8.88;;;;;;;;;;393096;133;856134;-59
2021/08/15 04:17:32;;;;;;;14.39;9.56;;;;;;;;;;393935;133;856439;-59
2021/08/15 04:18:34;;;;;;;18.33;9.29;;;;;;;;;;393869;134;856320;-59
2021/08/15 04:19:35;;;;;;;15.38;9.91;;;;;;;;;;392882;134;856253;-60
2021/08/15 04:20:38;;;;;;;17.69;9.70;;;;;;;;;;393636;133;856191;-58
2021/08/15 04:21:39;;;;;;;16.29;9.02;;;;;;;;;;392535;133;856072;-59
2021/08/15 04:22:41;;;;;;;14.24;9.11;;;;;;;;;;392613;134;863811;-59
2021/08/15 04:23:43;;;;;;;16.76;9.66;;;;;;;;;;394176;133;856194;-60
2021/08/15 04:24:44;;;;;;;15.65;8.75;;;;;;;;;;396079;133;856176;-59
2021/08/15 04:25:46;;;;;;;12.93;8.70;;;;;;;;;;394542;134;863589;-59
2021/08/15 04:26:50;;;;;;;15.88;9.51;;;;;;;;;;392485;133;856199;-59
2021/08/15 04:27:52;;;;;;;20.28;10.24;;;;;;;;;;392372;133;856158;-60
2021/08/15 04:28:53;;;;;;;18.32;9.46;;;;;;;;;;392504;133;863447;-59
2021/08/15 04:29:55;;;;;;;14.21;9.66;;;;;;;;;;392588;136;856090;-60
2021/08/15 04:30:57;;;;;;;14.90;10.10;;;;;;;;;;393536;133;856414;-59
2021/08/15 04:31:58;;;;;;;18.59;9.46;;;;;;;;;;392925;133;856365;-60
2021/08/15 04:33:00;;;;;;;20.83;9.54;;;;;;;;;;379021;140;856290;-59
2021/08/15 04:34:01;;;;;;;21.63;9.41;;;;;;;;;;394802;133;857046;-58
2021/08/15 04:35:03;;;;;;;17.74;9.03;;;;;;;;;;394834;133;856424;-59
2021/08/15 04:36:05;;;;;;;12.57;9.01;;;;;;;;;;393770;133;856465;-59
2021/08/15 04:37:08;;;;;;;17.12;9.44;;;;;;;;;;392639;136;856407;-58
2021/08/15 04:38:10;;;;;;;16.37;9.44;;;;;;;;;;393799;133;856717;-59
2021/08/15 04:39:11;;;;;;;24.44;9.81;;;;;;;;;;392453;133;856675;-59
2021/08/15 04:40:13;;;;;;;19.01;9.16;;;;;;;;;;392596;137;856168;-60
2021/08/15 04:41:15;;;;;;;15.60;8.94;;;;;;;;;;393699;133;863799;-61
2021/08/15 04:42:18;;;;;;;16.68;8.35;;;;;;;;;;392477;133;856108;-60
2021/08/15 04:43:19;;;;;;;14.65;9.22;;;;;;;;;;393570;133;856164;-59
2021/08/15 04:44:21;;;;;;;16.15;8.52;;;;;;;;;;392544;136;856108;-59
2021/08/15 04:45:22;;;;;;;16.06;8.46;;;;;;;;;;392935;133;856787;-59
2021/08/15 04:46:24;;;;;;;14.82;8.86;;;;;;;;;;392454;133;856537;-60
2021/08/15 04:47:26;;;;;;;15.60;8.45;;;;;;;;;;392896;136;856324;-61
2021/08/15 04:48:28;;;;;;;15.05;8.24;;;;;;;;;;397229;133;856069;-59
2021/08/15 04:49:29;;;;;;;14.11;8.03;;;;;;;;;;392565;134;856156;-61
2021/08/15 04:50:32;;;;;;;12.39;7.65;;;;;;;;;;392893;133;856151;-61
2021/08/15 04:51:34;;;;;;;12.07;7.79;;;;;;;;;;392930;134;863696;-59
2021/08/15 04:52:35;;;;;;;14.83;8.29;;;;;;;;;;393408;133;856268;-59
2021/08/15 04:53:37;;;;;;;13.21;8.00;;;;;;;;;;392320;133;863809;-61
2021/08/15 04:54:39;;;;;;;13.79;7.69;;;;;;;;;;384360;136;856121;-60
2021/08/15 04:55:40;;;;;;;9.21;7.17;;;;;;;;;;399197;133;856096;-59
2021/08/15 04:56:42;;;;;;;16.47;7.57;;;;;;;;;;392499;133;856698;-60
2021/08/15 04:57:43;;;;;;;17.86;7.62;;;;;;;;;;392520;133;856716;-59
2021/08/15 04:58:45;;;;;;;12.74;7.65;;;;;;;;;;393550;134;856309;-60
2021/08/15 04:59:47;;;;;;;9.95;6.90;;;;;;;;;;393772;133;856216;-59
2021/08/15 05:00:50;;;;;;;12.74;7.61;;;;;;;;;;393528;133;856207;-60
2021/08/15 05:01:51;;;;;;;13.10;7.09;;;;;;;;;;392599;134;856204;-59
2021/08/15 05:02:53;;;;;;;18.05;7.64;;;;;;;;;;392649;133;864016;-59
2021/08/15 05:03:55;;;;;;;17.29;7.62;;;;;;;;;;393024;133;863764;-59
2021/08/15 05:04:56;;;;;;;11.86;7.21;;;;;;;;;;392982;133;856278;-60
2021/08/15 05:05:58;;;;;;;11.16;6.91;;;;;;;;;;393707;134;856313;-60
2021/08/15 05:07:00;;;;;;;12.05;6.97;;;;;;;;;;393090;133;856422;-59
2021/08/15 05:08:02;;;;;;;12.65;6.99;;;;;;;;;;394235;133;856809;-59
2021/08/15 05:09:03;;;;;;;13.25;7.60;;;;;;;;;;393492;136;856494;-59
2021/08/15 05:10:05;;;;;;;14.30;7.81;;;;;;;;;;393624;134;856281;-60
2021/08/15 05:11:07;;;;;;;12.87;6.95;;;;;;;;;;393976;133;863977;-58
2021/08/15 05:12:08;;;;;;;12.16;7.49;;;;;;;;;;392872;133;856638;-59
2021/08/15 05:13:10;;;;;;;11.93;6.81;;;;;;;;;;394582;134;857952;-58
2021/08/15 05:14:12;;;;;;;13.85;7.17;;;;;;;;;;394296;133;856255;-57
2021/08/15 05:15:13;;;;;;;12.67;6.99;;;;;;;;;;392512;133;856145;-59
2021/08/15 05:16:16;;;;;;;13.27;7.40;;;;;;;;;;392753;134;856144;-59
2021/08/15 05:17:17;;;;;;;15.19;7.44;;;;;;;;;;394522;133;856725;-58
2021/08/15 05:18:19;;;;;;;13.51;6.71;;;;;;;;;;393522;132;856207;-57
2021/08/15 05:19:21;;;;;;;12.69;7.03;;;;;;;;;;392800;133;856227;-59
2021/08/15 05:20:23;;;;;;;12.45;7.19;;;;;;;;;;395609;134;856270;-59
2021/08/15 05:21:25;;;;;;;9.18;6.49;;;;;;;;;;396422;133;863816;-59
2021/08/15 05:22:26;;;;;;;12.37;6.26;;;;;;;;;;393982;133;856290;-60
2021/08/15 05:23:28;;;;;;;11.44;6.58;;;;;;;;;;394033;134;856181;-60
2021/08/15 05:24:30;;;;;;;10.75;6.85;;;;;;;;;;394334;134;856162;-60
2021/08/15 05:25:31;;;;;;;11.01;6.19;;;;;;;;;;393370;133;856898;-59
2021/08/15 05:26:33;;;;;;;13.11;6.71;;;;;;;;;;394339;133;856668;-59
2021/08/15 05:27:35;;;;;;;11.16;6.74;;;;;;;;;;394255;134;856123;-60
2021/08/15 05:28:36;;;;;;;10.81;6.63;;;;;;;;;;396005;133;856319;-59
2021/08/15 05:29:38;;;;;;;10.79;6.66;;;;;;;;;;394517;133;856260;-59
2021/08/15 05:30:41;;;;;;;11.07;7.07;;;;;;;;;;392453;134;856433;-59
2021/08/15 05:31:42;;;;;;;13.64;6.34;;;;;;;;;;396336;134;856299;-59
2021/08/15 05:32:44;;;;;;;16.72;6.72;;;;;;;;;;392467;133;856182;-59
2021/08/15 05:33:45;;;;;;;11.24;6.59;;;;;;;;;;397950;133;856206;-58
2021/08/15 05:34:47;;;;;;;13.26;6.89;;;;;;;;;;399007;134;856124;-59
2021/08/15 05:35:49;;;;;;;11.54;6.34;;;;;;;;;;392758;133;856350;-59
2021/08/15 05:36:50;;;;;;;11.38;6.59;;;;;;;;;;393287;133;864581;-58
2021/08/15 05:37:52;;;;;;;13.10;6.62;;;;;;;;;;392609;133;856208;-58
2021/08/15 05:38:54;;;;;;;9.32;6.22;;;;;;;;;;392823;134;856157;-58
2021/08/15 05:39:55;;;;;;;12.48;6.91;;;;;;;;;;394852;133;864083;-57
2021/08/15 05:40:57;;;;;;;11.61;6.75;;;;;;;;;;381407;138;856418;-57
2021/08/15 05:41:59;;;;;;;13.41;6.26;;;;;;;;;;396884;134;863934;-59
2021/08/15 05:43:00;;;;;;;15.08;6.16;;;;;;;;;;394810;133;856463;-58
2021/08/15 05:44:02;;;;;;;9.97;6.20;;;;;;;;;;392710;133;856674;-59
2021/08/15 05:45:04;;;;;;;11.76;6.58;;;;;;;;;;393496;136;856344;-59
2021/08/15 05:46:06;;;;;;;10.66;6.64;;;;;;;;;;392894;133;863969;-58
2021/08/15 05:47:08;;;;;;;11.15;5.88;;;;;;;;;;393219;134;863685;-59
2021/08/15 05:48:10;;;;;;;9.99;6.16;;;;;;;;;;393815;133;856784;-59
2021/08/15 05:49:12;;;;;;;11.41;6.15;;;;;;;;;;392991;134;856833;-59
2021/08/15 05:50:14;;;;;;;12.10;6.49;;;;;;;;;;393779;133;863845;-59
2021/08/15 05:51:16;;;;;;;13.39;6.74;;;;;;;;;;393064;133;856795;-59
2021/08/15 05:52:17;;;;;;;12.60;6.19;;;;;;;;;;395998;134;863763;-60
2021/08/15 05:53:19;;;;;;;10.65;6.06;;;;;;;;;;397689;133;863961;-61
2021/08/15 05:54:20;;;;;;;10.67;6.14;;;;;;;;;;394400;134;856390;-61
2021/08/15 05:55:22;;;;;;;14.17;6.18;;;;;;;;;;396843;133;856908;-62
2021/08/15 05:56:24;;;;;;;11.45;5.96;;;;;;;;;;396444;134;856830;-61
2021/08/15 05:57:25;;;;;;;8.54;5.27;;;;;;;;;;393331;133;856802;-59
2021/08/15 05:58:27;;;;;;;10.46;5.97;;;;;;;;;;392514;133;856337;-61
2021/08/15 05:59:29;;;;;;;10.22;5.86;;;;;;;;;;394748;133;856590;-60